createdAt,value
2018-03-27T00:01:05.051Z,6.02
2018-03-27T00:06:55.632Z,6.32
2018-03-27T00:12:46.301Z,6.68
2018-03-27T00:18:36.989Z,6.64
2018-03-27T00:24:27.578Z,5.89
2018-03-27T00:30:18.231Z,5.83
2018-03-27T00:36:08.881Z,6.13
2018-03-27T00:41:59.524Z,6.34
2018-03-27T00:47:50.160Z,5.94
2018-03-27T00:53:40.833Z,7.04
2018-03-27T00:59:31.477Z,7.09
2018-03-27T01:05:22.177Z,8.22
2018-03-27T01:11:12.814Z,7.89
2018-03-27T01:17:03.400Z,8.03
2018-03-27T01:22:54.017Z,9.37
2018-03-27T01:28:44.669Z,9.33
2018-03-27T01:34:35.339Z,9.64
2018-03-27T01:40:26.010Z,9.07
2018-03-27T01:46:16.637Z,8.05
2018-03-27T01:52:07.212Z,9.18
2018-03-27T01:57:57.918Z,9.71
2018-03-27T02:03:48.596Z,9.81
2018-03-27T02:09:39.218Z,11.13
2018-03-27T02:15:29.807Z,10.72
2018-03-27T02:21:20.454Z,9.99
2018-03-27T02:27:11.078Z,9.47
2018-03-27T02:33:01.727Z,9.29
2018-03-27T02:38:52.388Z,9.14
2018-03-27T02:44:43.027Z,8.5
2018-03-27T02:50:33.640Z,9.06
2018-03-27T02:56:24.324Z,8.38
2018-03-27T03:02:14.910Z,8.48
2018-03-27T03:08:05.618Z,8.22
2018-03-27T03:13:56.285Z,9.38
2018-03-27T03:19:46.866Z,9.68
2018-03-27T03:25:37.470Z,9.03
2018-03-27T03:31:28.137Z,9.42
2018-03-27T03:37:18.769Z,9.24
2018-03-27T03:43:09.373Z,8.79
2018-03-27T03:49:00.028Z,10
2018-03-27T03:54:50.643Z,9.79
2018-03-27T04:00:41.295Z,9
2018-03-27T04:06:31.943Z,9.62
2018-03-27T04:12:22.571Z,9.59
2018-03-27T04:18:13.236Z,9.35
2018-03-27T04:24:03.833Z,9.48
2018-03-27T04:29:54.480Z,10.01
2018-03-27T04:35:45.129Z,9.53
2018-03-27T04:41:35.777Z,10.39
2018-03-27T04:47:26.406Z,10.3
2018-03-27T04:53:17.070Z,9.8
2018-03-27T04:59:07.717Z,9.94
2018-03-27T05:04:58.350Z,9.44
2018-03-27T05:10:48.964Z,9.66
2018-03-27T05:16:39.602Z,10.62
2018-03-27T05:22:30.265Z,10.88
2018-03-27T05:28:20.885Z,11.19
2018-03-27T05:34:11.500Z,11.66
2018-03-27T05:40:02.146Z,13.5
2018-03-27T05:45:52.785Z,14.84
2018-03-27T05:51:43.469Z,14.18
2018-03-27T05:57:34.058Z,14.45
2018-03-27T06:03:24.746Z,14.61
2018-03-27T06:09:15.372Z,13.88
2018-03-27T06:15:06.000Z,13.99
2018-03-27T06:20:56.668Z,14.48
2018-03-27T06:26:47.338Z,13.7
2018-03-27T06:32:37.961Z,13.92
2018-03-27T06:38:28.606Z,14.22
2018-03-27T06:44:19.245Z,15.94
2018-03-27T06:50:09.953Z,16.96
2018-03-27T06:56:00.601Z,17.5
2018-03-27T07:01:51.263Z,17.89
2018-03-27T07:07:42.019Z,19.24
2018-03-27T07:13:32.603Z,17.78
2018-03-27T07:19:23.330Z,17.05
2018-03-27T07:25:13.979Z,18.13
2018-03-27T07:31:04.681Z,34.5
2018-03-27T07:36:55.340Z,27.99
2018-03-27T07:42:46.041Z,23.14
2018-03-27T07:48:36.750Z,25.3
2018-03-27T07:54:27.465Z,22.27
2018-03-27T08:00:18.218Z,22.37
2018-03-27T08:06:08.932Z,22.61
2018-03-27T08:11:59.667Z,22.58
2018-03-27T09:33:06.168Z,14.47
2018-03-27T09:41:28.754Z,13.74
2018-03-27T09:47:19.560Z,14.22
2018-03-27T09:53:10.372Z,13.8
2018-03-27T09:59:01.209Z,15.74
2018-03-27T10:04:52.029Z,15.33
2018-03-27T10:10:42.822Z,14.07
2018-03-27T10:16:33.673Z,14.02
2018-03-27T10:22:24.513Z,15.82
2018-03-27T10:28:15.339Z,16.65
2018-03-27T10:34:06.157Z,17.34
2018-03-27T10:39:57.025Z,18.21
2018-03-27T10:45:47.845Z,16.96
2018-03-27T10:51:38.703Z,16.4
2018-03-27T10:57:29.517Z,16.46
2018-03-27T11:03:20.374Z,14.96
2018-03-27T11:09:11.209Z,16.21
2018-03-27T11:15:02.146Z,15.3
2018-03-27T11:20:52.972Z,14.06
2018-03-27T11:26:43.825Z,13.36
2018-03-27T11:32:34.674Z,12.12
2018-03-27T11:38:25.586Z,13.24
2018-03-27T11:44:16.367Z,12.44
2018-03-27T11:50:07.205Z,13.13
2018-03-27T13:49:32.808Z,14.26
2018-03-27T13:55:23.548Z,15.55
2018-03-27T14:01:14.308Z,15.29
2018-03-27T14:07:05.042Z,17.04
2018-03-27T14:12:55.798Z,14.91
2018-03-27T16:12:00.560Z,6.72
2018-03-27T16:17:51.257Z,6.81
2018-03-27T16:23:41.958Z,8.2
2018-03-27T16:29:32.652Z,6.87
2018-03-27T16:35:23.358Z,8.52
2018-03-27T16:41:14.123Z,7.59
2018-03-27T16:47:04.783Z,7.71
2018-03-27T16:52:55.539Z,7.08
2018-03-27T16:58:46.224Z,7.23
2018-03-27T17:04:36.989Z,8.58
2018-03-27T17:10:27.694Z,8.97
2018-03-27T17:16:18.411Z,9.68
2018-03-27T17:22:09.067Z,10.2
2018-03-27T17:27:59.826Z,10.1
2018-03-27T17:33:50.501Z,8.86
2018-03-27T17:39:41.206Z,9.66
2018-03-27T17:45:31.866Z,11.19
2018-03-27T17:51:22.555Z,9.88
2018-03-27T17:57:13.265Z,11.28
2018-03-27T18:03:03.991Z,9.72
2018-03-27T18:08:54.691Z,9.99
2018-03-27T18:14:45.450Z,10.1
2018-03-27T18:20:36.042Z,10.67
2018-03-27T18:26:26.754Z,9.36
2018-03-27T18:32:17.425Z,10.46
2018-03-27T18:38:08.096Z,10.32
2018-03-27T18:43:58.772Z,11.08
2018-03-27T18:49:49.437Z,11.29
2018-03-27T18:55:40.116Z,10.79
2018-03-27T19:01:30.778Z,10.71
2018-03-27T19:07:21.382Z,10.19
2018-03-27T19:13:12.078Z,11.12
2018-03-27T19:19:02.729Z,12.42
2018-03-27T19:24:53.411Z,11.23
2018-03-27T19:30:44.031Z,13.15
2018-03-27T19:36:34.683Z,11.59
2018-03-27T19:42:25.321Z,11.63
2018-03-27T19:48:16.003Z,11.5
2018-03-27T19:54:06.660Z,13.87
2018-03-27T19:59:57.304Z,15.4
2018-03-27T20:05:47.942Z,15.81
2018-03-27T20:11:38.627Z,14.46
2018-03-27T20:17:29.256Z,18.36
2018-03-27T20:23:19.970Z,16.36
2018-03-27T20:29:10.619Z,17.25
2018-03-27T20:35:01.322Z,16.2
2018-03-27T20:40:51.897Z,17.28
2018-03-27T20:46:42.527Z,16.2
2018-03-27T20:52:33.186Z,15.67
2018-03-27T20:58:23.896Z,14.35
2018-03-27T21:04:14.521Z,14.34
2018-03-27T21:10:05.173Z,14.76
2018-03-27T21:15:55.833Z,14.17
2018-03-27T21:21:46.543Z,12.79
2018-03-27T21:27:37.160Z,12.76
2018-03-27T21:33:27.761Z,14.46
2018-03-27T21:39:18.403Z,12.39
2018-03-27T21:45:09.067Z,12.9
2018-03-27T21:50:59.696Z,11.96
2018-03-27T21:56:50.364Z,12.63
2018-03-27T22:02:40.992Z,11.66
2018-03-27T22:08:31.681Z,12.22
2018-03-27T22:14:22.339Z,13.02
2018-03-27T22:20:12.961Z,12.69
2018-03-27T22:26:03.598Z,13.29
2018-03-27T22:31:54.311Z,14.3
2018-03-27T22:37:44.960Z,14.25
2018-03-27T22:43:35.644Z,15.3
2018-03-27T22:49:26.215Z,16.21
2018-03-27T22:55:16.911Z,16.69
2018-03-27T23:01:07.569Z,16.23
2018-03-27T23:06:58.241Z,16.23
2018-03-27T23:12:48.841Z,16.99
2018-03-27T23:18:39.471Z,18.05
2018-03-27T23:24:30.134Z,18.56
2018-03-27T23:30:20.796Z,17.99
2018-03-27T23:36:11.442Z,19.97
2018-03-27T23:42:02.068Z,19.46
2018-03-27T23:47:52.705Z,19.33
2018-03-27T23:53:43.338Z,18.59
2018-03-27T23:59:33.974Z,19.52
